Time;durP1;ratioP1;P1;durP2;ratioP2;P2;SDS_P1;SDS_P2;PMS_P1;PMS_P2;Temp;Humidity;BMP_temperature;BMP_pressure;BME280_temperature;BME280_humidity;BME280_pressure;Samples;Min_cycle;Max_cycle;Signal;HPM_P1;HPM_P2
2023/05/22 00:01:18;;;;;;;9.23;4.78;;;12.20;99.90;;;;;;5075451;28;20043;-73
2023/05/22 00:03:44;;;;;;;7.65;5.32;;;12.10;99.90;;;;;;5075519;28;20059;-73
2023/05/22 00:06:10;;;;;;;8.57;5.10;;;12.10;99.90;;;;;;5074959;28;20032;-73
2023/05/22 00:08:36;;;;;;;6.32;4.82;;;12.10;99.90;;;;;;5074849;28;20025;-73
2023/05/22 00:11:02;;;;;;;6.68;5.00;;;12.10;99.90;;;;;;5075174;28;20020;-73
2023/05/22 00:13:28;;;;;;;6.95;5.50;;;12.10;99.90;;;;;;5075351;28;20032;-75
2023/05/22 00:15:53;;;;;;;7.00;5.22;;;12.10;99.90;;;;;;5074751;28;20092;-75
2023/05/22 00:18:19;;;;;;;7.95;5.10;;;12.10;99.90;;;;;;5056782;28;20029;-75
2023/05/22 00:20:45;;;;;;;8.45;5.43;;;11.90;99.90;;;;;;5074757;28;20038;-74
2023/05/22 00:23:11;;;;;;;6.60;5.10;;;11.70;99.90;;;;;;5074696;28;20025;-75
2023/05/22 00:25:38;;;;;;;6.28;4.93;;;11.60;99.90;;;;;;5074620;28;20036;-75
2023/05/22 00:28:04;;;;;;;6.90;5.20;;;11.50;99.90;;;;;;5074412;28;20059;-75
2023/05/22 00:30:30;;;;;;;7.95;5.32;;;11.60;99.90;;;;;;5074517;28;20021;-75
2023/05/22 00:32:56;;;;;;;9.02;5.85;;;11.50;99.90;;;;;;5074374;28;20021;-75
2023/05/22 00:35:22;;;;;;;6.80;4.85;;;11.50;99.90;;;;;;5074460;28;20031;-75
2023/05/22 00:37:48;;;;;;;6.47;5.32;;;11.50;99.90;;;;;;5073194;28;20025;-74
2023/05/22 00:40:16;;;;;;;7.63;5.05;;;11.50;99.90;;;;;;5074268;28;20054;-74
2023/05/22 00:42:43;;;;;;;7.43;5.03;;;11.50;99.90;;;;;;5074061;28;20025;-74
2023/05/22 00:45:12;;;;;;;7.25;4.65;;;11.50;99.90;;;;;;5074036;28;20166;-74
2023/05/22 00:47:39;;;;;;;9.02;5.25;;;11.40;99.90;;;;;;5073940;28;20107;-74
2023/05/22 00:50:05;;;;;;;9.07;5.50;;;11.30;99.90;;;;;;5074688;28;20025;-75
2023/05/22 00:52:33;;;;;;;6.80;5.30;;;11.40;99.90;;;;;;5074426;28;20024;-75
2023/05/22 00:54:59;;;;;;;10.18;6.07;;;11.40;99.90;;;;;;5074151;28;20112;-75
2023/05/22 00:57:25;;;;;;;8.35;5.68;;;11.30;99.90;;;;;;5074168;28;20120;-75
2023/05/22 00:59:51;;;;;;;6.68;5.13;;;11.30;99.90;;;;;;5073848;28;20067;-75
2023/05/22 01:02:17;;;;;;;7.32;5.43;;;11.30;99.90;;;;;;5073906;28;20028;-75
2023/05/22 01:04:49;;;;;;;7.78;5.40;;;11.20;99.90;;;;;;5073919;28;20025;-75
2023/05/22 01:07:16;;;;;;;8.35;4.95;;;11.20;99.90;;;;;;5073821;28;20040;-74
2023/05/22 01:09:42;;;;;;;9.13;4.95;;;11.20;99.90;;;;;;5074295;28;20480;-75
2023/05/22 01:12:17;;;;;;;8.52;5.63;;;11.20;99.90;;;;;;5073758;28;20021;-75
2023/05/22 01:15:01;;;;;;;7.22;5.50;;;11.10;99.90;;;;;;5074046;28;20082;-74
2023/05/22 01:17:33;;;;;;;10.25;5.38;;;11.10;99.90;;;;;;5073738;28;20482;-74
2023/05/22 01:20:13;;;;;;;6.80;5.35;;;11.10;99.90;;;;;;5074094;28;20039;-75
2023/05/22 01:22:59;;;;;;;8.70;5.07;;;11.00;99.90;;;;;;5073635;28;20027;-75
2023/05/22 01:25:33;;;;;;;7.57;5.63;;;10.90;99.90;;;;;;5073647;28;20049;-75
2023/05/22 01:28:17;;;;;;;8.90;6.15;;;10.80;99.90;;;;;;5073647;28;20063;-75
2023/05/22 01:31:00;;;;;;;9.50;6.10;;;10.70;99.90;;;;;;5056961;28;20064;-75
2023/05/22 01:33:30;;;;;;;8.20;5.82;;;10.70;99.90;;;;;;5073460;28;20017;-75
2023/05/22 01:35:58;;;;;;;8.52;5.72;;;10.60;99.90;;;;;;5056777;28;20025;-75
2023/05/22 01:38:25;;;;;;;7.97;5.80;;;10.60;99.90;;;;;;5073331;28;20021;-75
2023/05/22 01:40:51;;;;;;;7.88;5.28;;;10.50;99.90;;;;;;5073597;28;20044;-75
2023/05/22 01:43:17;;;;;;;8.95;6.25;;;10.50;99.90;;;;;;5055433;28;20028;-75
2023/05/22 01:45:43;;;;;;;7.80;5.60;;;10.50;99.90;;;;;;5073260;28;20028;-75
2023/05/22 01:48:08;;;;;;;7.10;5.18;;;10.50;99.90;;;;;;5072917;28;20033;-75
2023/05/22 01:50:34;;;;;;;9.50;5.68;;;10.50;99.90;;;;;;5055995;28;20415;-75
2023/05/22 01:53:22;;;;;;;8.93;5.70;;;10.60;99.90;;;;;;5073338;28;20527;-75
2023/05/22 01:55:55;;;;;;;7.18;5.18;;;10.70;99.90;;;;;;5073319;28;20052;-75
2023/05/22 01:58:51;;;;;;;8.07;5.57;;;10.70;99.90;;;;;;5073294;28;20036;-76
2023/05/22 02:01:19;;;;;;;8.90;5.82;;;10.80;99.90;;;;;;5073211;28;20086;-75
2023/05/22 02:03:50;;;;;;;9.65;5.63;;;10.70;99.90;;;;;;5073428;28;20056;-75
2023/05/22 02:06:18;;;;;;;7.53;5.60;;;10.60;99.90;;;;;;5073517;28;20043;-75
2023/05/22 02:08:44;;;;;;;8.05;6.00;;;10.60;99.90;;;;;;5038814;28;20028;-75
2023/05/22 02:11:12;;;;;;;8.40;6.10;;;10.60;99.90;;;;;;5073375;28;20540;-75
2023/05/22 02:13:39;;;;;;;7.70;5.68;;;10.60;99.90;;;;;;5055160;28;20108;-75
2023/05/22 02:16:05;;;;;;;7.93;5.70;;;10.60;99.90;;;;;;5055024;28;20021;-75
2023/05/22 02:18:31;;;;;;;9.27;6.20;;;10.50;99.90;;;;;;5073222;28;20021;-75
2023/05/22 02:20:57;;;;;;;8.77;5.72;;;10.40;99.90;;;;;;5073542;28;20553;-75
2023/05/22 02:23:24;;;;;;;8.13;5.85;;;10.40;99.90;;;;;;5073007;28;20016;-75
2023/05/22 02:25:50;;;;;;;8.35;6.15;;;10.40;99.90;;;;;;5072879;28;20031;-75
2023/05/22 02:28:16;;;;;;;9.90;5.72;;;10.40;99.90;;;;;;5072883;28;20036;-75
2023/05/22 02:30:42;;;;;;;9.75;6.25;;;10.40;99.90;;;;;;5073180;28;20031;-75
2023/05/22 02:33:08;;;;;;;9.45;6.18;;;10.40;99.90;;;;;;5073391;28;20020;-75
2023/05/22 02:35:34;;;;;;;8.75;5.93;;;10.30;99.90;;;;;;5073198;28;20116;-75
2023/05/22 02:38:00;;;;;;;9.32;5.97;;;10.30;99.90;;;;;;5055219;28;20024;-75
2023/05/22 02:40:26;;;;;;;10.50;6.90;;;10.30;99.90;;;;;;5072826;28;20032;-75
2023/05/22 02:42:51;;;;;;;11.75;6.88;;;10.30;99.90;;;;;;5055187;28;20480;-75
2023/05/22 02:45:17;;;;;;;10.95;6.50;;;10.30;99.90;;;;;;5073053;28;20033;-75
2023/05/22 02:47:43;;;;;;;9.82;6.60;;;10.30;99.90;;;;;;5072893;28;20074;-75
2023/05/22 02:50:09;;;;;;;10.50;6.90;;;10.30;99.90;;;;;;5054756;28;20036;-75
2023/05/22 02:52:35;;;;;;;13.98;8.35;;;10.30;99.90;;;;;;5054850;28;20029;-75
2023/05/22 02:55:03;;;;;;;13.18;8.50;;;10.30;99.90;;;;;;5072978;28;20055;-75
2023/05/22 02:57:29;;;;;;;13.88;8.52;;;10.30;99.90;;;;;;5072587;28;20396;-75
2023/05/22 02:59:56;;;;;;;13.25;8.40;;;10.20;99.90;;;;;;5072699;28;20045;-75
2023/05/22 03:02:24;;;;;;;12.95;8.23;;;10.20;99.90;;;;;;5076457;28;20142;-75
2023/05/22 03:04:50;;;;;;;12.88;7.72;;;10.20;99.90;;;;;;5076257;28;20474;-75
2023/05/22 03:07:15;;;;;;;14.10;8.25;;;10.10;99.90;;;;;;5076143;28;20114;-75
2023/05/22 03:09:41;;;;;;;14.75;8.60;;;10.00;99.90;;;;;;5076025;28;20020;-75
2023/05/22 03:12:07;;;;;;;12.38;7.68;;;10.00;99.90;;;;;;5076088;28;20024;-75
2023/05/22 03:14:33;;;;;;;11.13;7.82;;;10.00;99.90;;;;;;5076076;28;20033;-75
2023/05/22 03:16:59;;;;;;;11.48;8.38;;;10.00;99.90;;;;;;5075973;28;20021;-75
2023/05/22 03:19:25;;;;;;;13.15;8.88;;;9.90;99.90;;;;;;5041354;28;20490;-75
2023/05/22 03:21:51;;;;;;;14.57;7.63;;;9.80;99.90;;;;;;5076033;28;20392;-75
2023/05/22 03:24:16;;;;;;;11.98;7.20;;;9.80;99.90;;;;;;5058152;28;20055;-75
2023/05/22 03:26:42;;;;;;;11.55;7.05;;;9.70;99.90;;;;;;5075770;28;20516;-75
2023/05/22 03:29:08;;;;;;;11.90;6.90;;;9.70;99.90;;;;;;5058071;28;20048;-75
2023/05/22 03:31:35;;;;;;;10.55;7.05;;;9.60;99.90;;;;;;5075907;28;20020;-75
2023/05/22 03:34:01;;;;;;;12.43;6.78;;;9.60;99.90;;;;;;5075541;28;20035;-75
2023/05/22 03:36:27;;;;;;;9.65;6.50;;;9.70;99.90;;;;;;5075857;28;20071;-76
2023/05/22 03:38:52;;;;;;;10.98;7.28;;;9.70;99.90;;;;;;5075408;28;20480;-75
2023/05/22 03:41:18;;;;;;;12.30;8.60;;;9.70;99.90;;;;;;5041002;28;20484;-75
2023/05/22 03:43:45;;;;;;;10.90;7.50;;;9.70;99.90;;;;;;5075458;28;20024;-75
2023/05/22 03:46:11;;;;;;;13.60;8.70;;;9.60;99.90;;;;;;5075540;28;20036;-75
2023/05/22 03:48:37;;;;;;;15.07;9.13;;;9.50;99.90;;;;;;5075320;28;20025;-75
2023/05/22 03:51:04;;;;;;;14.38;9.15;;;9.40;99.90;;;;;;5075759;28;20020;-75
2023/05/22 03:53:29;;;;;;;16.00;9.23;;;9.40;99.90;;;;;;5057358;28;20484;-75
2023/05/22 03:55:56;;;;;;;15.75;9.75;;;9.40;99.90;;;;;;5075222;28;20044;-75
2023/05/22 03:58:24;;;;;;;15.48;9.38;;;9.50;99.90;;;;;;5075146;28;20032;-75
2023/05/22 04:00:51;;;;;;;15.23;9.68;;;9.40;99.90;;;;;;5075359;28;20032;-75
2023/05/22 04:03:18;;;;;;;14.15;8.88;;;9.50;99.90;;;;;;5057237;28;20020;-75
2023/05/22 04:05:45;;;;;;;14.00;8.45;;;9.50;99.90;;;;;;5075294;28;20025;-75
2023/05/22 04:08:10;;;;;;;12.25;8.05;;;9.60;99.90;;;;;;5057371;28;20036;-75
2023/05/22 04:10:37;;;;;;;13.70;8.57;;;9.60;99.90;;;;;;5057309;28;20029;-75
2023/05/22 04:13:04;;;;;;;13.93;8.90;;;9.60;99.90;;;;;;5056941;28;20032;-75
2023/05/22 04:15:32;;;;;;;13.77;8.70;;;9.60;99.90;;;;;;5074898;28;20028;-75
2023/05/22 04:18:01;;;;;;;12.73;8.75;;;9.60;99.90;;;;;;5074740;28;20017;-75
2023/05/22 04:20:27;;;;;;;12.25;8.35;;;9.60;99.90;;;;;;5074945;28;20032;-75
2023/05/22 04:22:56;;;;;;;14.73;9.40;;;9.70;99.90;;;;;;5057167;28;20028;-75
2023/05/22 04:25:22;;;;;;;15.48;10.02;;;9.60;99.90;;;;;;5056753;28;20032;-75
2023/05/22 04:27:47;;;;;;;17.35;10.73;;;9.50;99.90;;;;;;5056738;28;20510;-76
2023/05/22 04:30:15;;;;;;;17.27;10.68;;;9.50;99.90;;;;;;5074540;28;20095;-77
2023/05/22 04:32:42;;;;;;;15.52;10.18;;;9.50;99.90;;;;;;5056498;28;20029;-76
2023/05/22 04:35:08;;;;;;;16.48;9.57;;;9.50;99.90;;;;;;5056084;28;20027;-76
2023/05/22 04:37:35;;;;;;;17.63;10.13;;;9.50;99.90;;;;;;5055936;28;20127;-76
2023/05/22 04:40:05;;;;;;;14.52;9.02;;;9.50;99.90;;;;;;5074461;28;20392;-77
2023/05/22 04:42:33;;;;;;;16.42;9.35;;;9.60;99.90;;;;;;5068596;28;20102;-76
2023/05/22 04:44:59;;;;;;;15.13;9.45;;;9.60;99.90;;;;;;5036723;28;20381;-76
2023/05/22 04:47:27;;;;;;;11.75;7.85;;;9.60;99.90;;;;;;5061158;28;20078;-76
2023/05/22 04:49:55;;;;;;;12.73;8.68;;;9.60;99.90;;;;;;5054400;28;20025;-76
2023/05/22 04:52:21;;;;;;;13.05;8.77;;;9.60;99.90;;;;;;5055169;28;20469;-76
2023/05/22 04:54:48;;;;;;;13.93;8.73;;;9.60;99.90;;;;;;5055358;28;20078;-76
2023/05/22 04:57:16;;;;;;;15.70;9.27;;;9.70;99.90;;;;;;5054653;28;20027;-74
2023/05/22 04:59:41;;;;;;;14.25;9.25;;;9.70;99.90;;;;;;5074260;28;20032;-76
2023/05/22 05:02:07;;;;;;;14.00;9.60;;;9.80;99.90;;;;;;5057811;28;20366;-76
2023/05/22 05:04:33;;;;;;;14.77;8.98;;;9.80;99.90;;;;;;5054113;28;20060;-76
2023/05/22 05:06:58;;;;;;;14.48;8.63;;;9.90;99.90;;;;;;5036606;28;20369;-77
2023/05/22 05:09:24;;;;;;;14.48;9.00;;;10.00;99.90;;;;;;5053804;28;20029;-76
2023/05/22 05:11:51;;;;;;;14.23;8.52;;;10.00;99.90;;;;;;5052664;28;20096;-76
2023/05/22 05:14:17;;;;;;;14.73;9.27;;;10.10;99.90;;;;;;5052969;28;20483;-76
2023/05/22 05:16:42;;;;;;;11.73;7.85;;;10.20;99.90;;;;;;5053143;28;20029;-76
2023/05/22 05:19:08;;;;;;;12.63;8.13;;;10.20;99.90;;;;;;5053443;28;20029;-76
2023/05/22 05:21:34;;;;;;;14.30;8.55;;;10.30;99.90;;;;;;5053455;28;20366;-75
2023/05/22 05:24:01;;;;;;;14.18;9.07;;;10.40;99.90;;;;;;5034950;28;20056;-76
2023/05/22 05:26:27;;;;;;;14.13;7.82;;;10.50;99.90;;;;;;5053579;28;20448;-76
2023/05/22 05:28:53;;;;;;;10.43;7.63;;;10.60;99.90;;;;;;5053548;28;20057;-76
2023/05/22 05:31:22;;;;;;;13.70;8.20;;;10.70;99.90;;;;;;5053831;28;20021;-77
2023/05/22 05:33:48;;;;;;;13.48;7.82;;;10.80;99.90;;;;;;5036385;28;20431;-77
2023/05/22 05:36:15;;;;;;;11.25;7.75;;;10.80;99.90;;;;;;5035880;28;20070;-77
2023/05/22 05:38:41;;;;;;;10.88;8.00;;;10.90;99.90;;;;;;5035604;28;20501;-77
2023/05/22 05:41:06;;;;;;;11.48;7.97;;;11.00;99.90;;;;;;5035823;28;20056;-77
2023/05/22 05:43:32;;;;;;;12.85;7.22;;;11.00;99.90;;;;;;5038467;28;20037;-76
2023/05/22 05:45:58;;;;;;;11.93;7.88;;;11.10;99.90;;;;;;5073467;28;20032;-77
2023/05/22 05:48:24;;;;;;;11.07;7.65;;;11.20;99.90;;;;;;5055951;28;20040;-76
2023/05/22 05:50:50;;;;;;;13.85;8.77;;;11.30;99.90;;;;;;5073603;28;20388;-77
2023/05/22 05:53:15;;;;;;;13.18;9.35;;;11.40;99.90;;;;;;5055311;28;20058;-77
2023/05/22 05:55:41;;;;;;;14.95;8.98;;;11.50;99.90;;;;;;5055326;28;20466;-77
2023/05/22 05:58:06;;;;;;;15.80;8.52;;;11.60;99.90;;;;;;5073313;28;20033;-77
2023/05/22 06:00:32;;;;;;;13.80;8.43;;;11.70;99.90;;;;;;5073496;28;20115;-77
2023/05/22 06:02:58;;;;;;;15.48;9.75;;;11.80;99.90;;;;;;5073237;28;20029;-77
2023/05/22 06:05:25;;;;;;;11.93;7.88;;;11.90;99.90;;;;;;5072930;28;20035;-77
2023/05/22 06:07:51;;;;;;;16.67;8.52;;;12.00;99.90;;;;;;5073115;28;20032;-77
2023/05/22 06:10:17;;;;;;;21.00;9.35;;;12.20;99.90;;;;;;5073271;28;20435;-77
2023/05/22 06:12:42;;;;;;;12.05;7.78;;;12.20;99.90;;;;;;5073205;28;20087;-76
2023/05/22 06:15:08;;;;;;;12.68;8.40;;;12.40;99.90;;;;;;5055683;28;20025;-73
2023/05/22 06:17:35;;;;;;;10.70;7.57;;;12.50;99.90;;;;;;5073083;28;20040;-72
2023/05/22 06:20:04;;;;;;;9.68;6.70;;;12.60;99.90;;;;;;5073181;28;20135;-73
2023/05/22 06:22:29;;;;;;;11.55;7.75;;;12.70;99.90;;;;;;5055089;28;20024;-72
2023/05/22 06:24:55;;;;;;;11.45;7.53;;;12.90;99.90;;;;;;5073060;28;20044;-72
2023/05/22 06:27:22;;;;;;;10.43;7.22;;;12.90;99.90;;;;;;5055010;28;20021;-73
2023/05/22 06:29:50;;;;;;;10.52;7.78;;;13.10;99.90;;;;;;5073311;28;20384;-73
2023/05/22 06:32:16;;;;;;;9.10;6.88;;;13.20;99.90;;;;;;5055281;28;20047;-73
2023/05/22 06:34:43;;;;;;;10.82;7.07;;;13.30;99.90;;;;;;5073277;28;20365;-73
2023/05/22 06:37:10;;;;;;;9.77;6.65;;;13.40;99.90;;;;;;5076599;28;20053;-73
2023/05/22 06:39:36;;;;;;;10.38;6.63;;;13.50;99.90;;;;;;5059313;28;20028;-73
2023/05/22 06:42:02;;;;;;;10.25;7.95;;;13.60;99.90;;;;;;5076979;28;20503;-72
2023/05/22 06:44:27;;;;;;;7.93;6.15;;;13.80;99.90;;;;;;5077884;28;20056;-73
2023/05/22 06:46:53;;;;;;;11.88;7.13;;;13.90;99.90;;;;;;5076968;28;20103;-73
2023/05/22 06:49:19;;;;;;;12.15;7.82;;;14.00;99.90;;;;;;5059269;28;20025;-72
2023/05/22 06:51:45;;;;;;;9.85;6.88;;;14.10;99.90;;;;;;5076875;28;20031;-73
2023/05/22 06:54:12;;;;;;;9.00;7.07;;;14.30;99.90;;;;;;5077093;28;20028;-73
2023/05/22 06:56:39;;;;;;;10.65;6.63;;;14.40;99.90;;;;;;5076441;28;20031;-73
2023/05/22 06:59:05;;;;;;;10.23;6.82;;;14.60;99.90;;;;;;5076501;28;20032;-73
2023/05/22 07:01:31;;;;;;;12.38;6.40;;;14.80;99.90;;;;;;5076732;28;20033;-73
2023/05/22 07:04:00;;;;;;;9.43;6.50;;;14.90;99.90;;;;;;5076882;28;20035;-73
2023/05/22 07:06:26;;;;;;;12.60;6.75;;;15.10;99.90;;;;;;5076853;28;20449;-73
2023/05/22 07:08:52;;;;;;;9.93;6.47;;;15.20;99.90;;;;;;5076811;28;20464;-73
2023/05/22 07:11:18;;;;;;;9.23;6.18;;;15.30;99.90;;;;;;5075512;28;20074;-72
2023/05/22 07:13:44;;;;;;;11.10;6.30;;;15.40;99.90;;;;;;5075145;28;20078;-73
2023/05/22 07:16:09;;;;;;;8.20;5.65;;;15.60;99.90;;;;;;5076350;28;20025;-73
2023/05/22 07:18:35;;;;;;;7.03;5.60;;;15.70;99.90;;;;;;5076088;28;20075;-72
2023/05/22 07:21:01;;;;;;;9.43;6.07;;;15.90;99.90;;;;;;5075276;28;20036;-73
2023/05/22 07:23:27;;;;;;;9.10;5.93;;;16.00;99.90;;;;;;5076290;28;20545;-73
2023/05/22 07:25:52;;;;;;;10.43;5.80;;;16.10;99.90;;;;;;5076478;28;20111;-73
2023/05/22 07:28:18;;;;;;;9.48;5.68;;;16.30;99.90;;;;;;5076827;28;20032;-73
2023/05/22 07:30:44;;;;;;;9.07;5.65;;;16.40;99.90;;;;;;5076239;28;20154;-73
2023/05/22 07:33:10;;;;;;;10.00;5.65;;;16.50;99.90;;;;;;5076178;28;20039;-73
2023/05/22 07:35:36;;;;;;;9.88;5.70;;;16.70;99.90;;;;;;5076043;28;20047;-73
2023/05/22 07:38:02;;;;;;;9.38;6.45;;;16.90;99.90;;;;;;5075853;28;20058;-72
2023/05/22 07:40:28;;;;;;;8.75;5.80;;;17.10;99.90;;;;;;5075740;28;20094;-73
2023/05/22 07:42:54;;;;;;;7.78;6.13;;;17.30;99.90;;;;;;5075658;28;20072;-73
2023/05/22 07:45:20;;;;;;;7.63;5.25;;;17.40;99.90;;;;;;5075244;28;20031;-73
2023/05/22 07:47:45;;;;;;;9.65;5.65;;;17.60;99.90;;;;;;5074285;28;20036;-73
2023/05/22 07:50:11;;;;;;;8.70;5.30;;;17.70;99.90;;;;;;5075867;28;20078;-72
2023/05/22 07:52:37;;;;;;;9.00;5.25;;;17.90;99.90;;;;;;5075825;28;20021;-73
2023/05/22 07:55:03;;;;;;;8.82;5.55;;;18.10;99.90;;;;;;5075886;28;20025;-73
2023/05/22 07:57:31;;;;;;;7.93;5.30;;;18.20;99.90;;;;;;5057470;28;20049;-73
2023/05/22 07:59:58;;;;;;;9.40;5.53;;;18.40;99.90;;;;;;5075578;28;20025;-73
2023/05/22 08:02:23;;;;;;;9.23;5.13;;;18.50;99.90;;;;;;5075434;28;20025;-73
2023/05/22 08:04:49;;;;;;;7.10;5.20;;;18.70;99.90;;;;;;5075135;28;20476;-73
2023/05/22 08:07:15;;;;;;;7.43;5.10;;;18.90;99.90;;;;;;5074188;28;20522;-73
2023/05/22 08:09:40;;;;;;;6.60;4.90;;;19.00;99.60;;;;;;5075114;28;20029;-73
2023/05/22 08:12:06;;;;;;;8.50;4.70;;;19.10;98.20;;;;;;5075037;28;20027;-73
2023/05/22 08:14:32;;;;;;;6.20;4.53;;;19.30;96.60;;;;;;5056987;28;20025;-73
2023/05/22 08:17:00;;;;;;;6.20;4.22;;;19.40;96.40;;;;;;5075041;28;20051;-73
2023/05/22 08:19:26;;;;;;;8.75;4.72;;;19.60;93.80;;;;;;5056914;28;20549;-72
2023/05/22 08:21:56;;;;;;;5.57;4.13;;;19.70;91.20;;;;;;5074801;28;20107;-72
2023/05/22 08:24:27;;;;;;;5.88;4.10;;;19.90;89.00;;;;;;5075016;28;20496;-72
2023/05/22 08:26:53;;;;;;;6.53;4.05;;;20.10;86.20;;;;;;5074936;28;20036;-72
2023/05/22 08:29:19;;;;;;;6.10;4.18;;;20.30;87.40;;;;;;5074648;28;20025;-73
2023/05/22 08:31:45;;;;;;;8.73;4.70;;;20.40;84.60;;;;;;5074671;28;20103;-72
2023/05/22 08:34:11;;;;;;;7.35;4.85;;;20.40;82.70;;;;;;5074554;28;20063;-72
2023/05/22 08:36:36;;;;;;;11.05;4.75;;;20.60;80.90;;;;;;5074723;28;20028;-73
2023/05/22 08:39:02;;;;;;;9.65;4.90;;;20.70;81.10;;;;;;5074615;28;20043;-72
2023/05/22 08:41:28;;;;;;;6.75;4.40;;;20.80;79.20;;;;;;5074620;28;20396;-72
2023/05/22 08:43:54;;;;;;;9.48;4.20;;;21.00;76.90;;;;;;5074958;28;20039;-72
2023/05/22 08:46:24;;;;;;;5.15;3.78;;;21.10;79.10;;;;;;5074686;28;20025;-72
2023/05/22 08:48:51;;;;;;;7.43;4.10;;;21.30;76.90;;;;;;5074320;28;20028;-72
2023/05/22 08:51:20;;;;;;;7.47;4.10;;;21.40;74.60;;;;;;5074815;28;20020;-73
2023/05/22 08:53:50;;;;;;;6.32;4.32;;;21.50;72.20;;;;;;5074550;28;20491;-72
2023/05/22 08:56:16;;;;;;;8.57;4.07;;;21.60;72.90;;;;;;5074236;28;20048;-73
2023/05/22 08:58:43;;;;;;;7.75;3.90;;;21.70;74.90;;;;;;5073021;28;20033;-73
2023/05/22 09:01:09;;;;;;;8.82;4.07;;;21.90;72.80;;;;;;5074338;28;20036;-72
2023/05/22 09:03:35;;;;;;;;;;;22.00;70.00;;;;;;5074915;28;20029;-72
2023/05/22 09:06:01;;;;;;;;;;;22.00;69.20;;;;;;5074342;28;19904;-73
2023/05/22 09:08:27;;;;;;;;;;;22.10;67.60;;;;;;5074316;28;20007;-72
2023/05/22 09:10:54;;;;;;;;;;;22.20;69.00;;;;;;5074511;28;20272;-72
2023/05/22 09:13:25;;;;;;;;;;;22.40;71.40;;;;;;5056553;28;19908;-73
2023/05/22 09:15:50;;;;;;;;;;;22.50;65.80;;;;;;5074545;28;20276;-72
2023/05/22 09:18:16;;;;;;;;;;;22.60;66.50;;;;;;5074100;28;19905;-72
2023/05/22 09:20:41;;;;;;;;;;;22.80;65.90;;;;;;5074156;28;20411;-72
2023/05/22 09:23:16;;;;;;;;;;;22.90;66.90;;;;;;5074136;28;20276;-72
2023/05/22 09:25:42;;;;;;;;;;;23.00;61.00;;;;;;5074070;28;19965;-72
2023/05/22 09:28:09;;;;;;;;;;;23.10;60.30;;;;;;5073916;28;20334;-72
2023/05/22 09:30:35;;;;;;;;;;;23.20;61.00;;;;;;5073986;28;19904;-72
2023/05/22 09:33:01;;;;;;;;;;;23.30;59.30;;;;;;5074698;28;19931;-72
2023/05/22 09:35:29;;;;;;;;;;;23.40;63.80;;;;;;5074322;28;19904;-72
2023/05/22 09:37:56;;;;;;;;;;;23.60;61.30;;;;;;5074079;28;19908;-72
2023/05/22 09:40:22;;;;;;;;;;;23.60;57.30;;;;;;5074016;28;19905;-72
2023/05/22 09:42:47;;;;;;;;;;;23.70;61.10;;;;;;5074140;28;19915;-72
2023/05/22 09:45:13;;;;;;;;;;;23.80;59.90;;;;;;5073855;28;19961;-72
2023/05/22 09:47:39;;;;;;;;;;;23.90;59.40;;;;;;5073798;28;19958;-72
2023/05/22 09:50:06;;;;;;;;;;;24.00;59.50;;;;;;5073834;28;19919;-72
2023/05/22 09:52:35;;;;;;;;;;;24.20;59.10;;;;;;5074056;28;19916;-72
2023/05/22 09:55:07;;;;;;;;;;;24.30;59.60;;;;;;5073711;28;19950;-72
2023/05/22 09:57:43;;;;;;;;;;;24.50;58.40;;;;;;5074102;28;19912;-72
2023/05/22 10:00:14;;;;;;;;;;;24.60;58.80;;;;;;5073701;28;19912;-72
2023/05/22 10:02:45;;;;;;;;;;;24.70;58.90;;;;;;5072431;28;20007;-72
2023/05/22 10:05:12;;;;;;;;;;;24.70;54.80;;;;;;5073629;28;20376;-72
2023/05/22 10:07:44;;;;;;;;;;;24.80;55.50;;;;;;5073807;28;19905;-72
2023/05/22 10:10:11;;;;;;;;;;;24.90;55.30;;;;;;5075988;28;20010;-72
2023/05/22 10:12:44;;;;;;;;;;;25.00;54.20;;;;;;5077962;28;19904;-72
2023/05/22 10:15:10;;;;;;;;;;;25.00;55.60;;;;;;5077724;28;20386;-72
2023/05/22 10:17:36;;;;;;;;;;;25.20;54.70;;;;;;5077603;28;19912;-72
2023/05/22 10:20:06;;;;;;;;;;;25.20;55.10;;;;;;5077892;28;20003;-72
2023/05/22 10:22:41;;;;;;;;;;;25.20;54.80;;;;;;5077651;28;19909;-72
2023/05/22 10:25:07;;;;;;;;;;;25.20;56.10;;;;;;5077425;28;19912;-72
2023/05/22 10:27:32;;;;;;;;;;;25.30;58.40;;;;;;5077232;28;19905;-72
2023/05/22 10:30:07;;;;;;;;;;;25.50;56.50;;;;;;5059789;28;19915;-72
2023/05/22 10:32:38;;;;;;;;;;;25.60;54.20;;;;;;5077371;28;19904;-72
2023/05/22 10:35:12;;;;;;;;;;;25.70;54.60;;;;;;5077285;28;19911;-72
2023/05/22 10:37:43;;;;;;;;;;;25.90;56.50;;;;;;5077213;28;20260;-72
2023/05/22 10:40:10;;;;;;;;;;;26.00;53.50;;;;;;5077128;28;19912;-72
2023/05/22 10:42:36;;;;;;;;;;;26.00;55.00;;;;;;5077107;28;19981;-72
2023/05/22 10:45:03;;;;;;;;;;;26.10;56.10;;;;;;5059561;28;19952;-72
2023/05/22 10:47:28;;;;;;;;;;;26.30;53.40;;;;;;5076813;28;19905;-72
2023/05/22 10:50:06;;;;;;;;;;;26.30;52.30;;;;;;5077537;28;19908;-72
2023/05/22 10:52:31;;;;;;;;;;;26.40;53.10;;;;;;5076952;28;19904;-72
2023/05/22 10:54:58;;;;;;;;;;;26.50;53.90;;;;;;5076866;28;19916;-72
2023/05/22 10:57:24;;;;;;;;;;;26.60;51.40;;;;;;5076803;28;20002;-72
2023/05/22 10:59:50;;;;;;;;;;;26.80;54.10;;;;;;5076854;28;19959;-72
2023/05/22 11:02:18;;;;;;;;;;;26.90;54.90;;;;;;5077032;28;19912;-72
2023/05/22 11:04:44;;;;;;;;;;;27.10;52.70;;;;;;5076668;28;19947;-72
2023/05/22 11:07:12;;;;;;;;;;;27.20;52.20;;;;;;5076592;28;20292;-72
2023/05/22 11:09:47;;;;;;;;;;;27.30;53.60;;;;;;5076429;28;19928;-72
2023/05/22 11:12:17;;;;;;;;;;;27.30;51.90;;;;;;5076902;28;19908;-72
2023/05/22 11:15:01;;;;;;;;;;;27.20;51.20;;;;;;5076357;28;20003;-72
2023/05/22 11:17:27;;;;;;;;;;;27.30;52.30;;;;;;5065606;28;19995;-74
2023/05/22 11:19:57;;;;;;;;;;;27.50;50.90;;;;;;5065774;28;19912;-72
2023/05/22 11:22:22;;;;;;;;;;;27.60;50.30;;;;;;5063205;28;19917;-73
2023/05/22 11:24:48;;;;;;;;;;;27.70;51.30;;;;;;5064118;28;19913;-72
2023/05/22 11:27:13;;;;;;;;;;;27.80;52.60;;;;;;5054232;28;19913;-72
2023/05/22 11:29:41;;;;;;;;;;;27.90;50.00;;;;;;5038175;28;19924;-74
2023/05/22 11:32:07;;;;;;;;;;;27.80;50.30;;;;;;5066507;28;19909;-73
2023/05/22 11:34:33;;;;;;;;;;;28.00;48.00;;;;;;5055309;28;19958;-73
2023/05/22 11:36:58;;;;;;;;;;;28.10;48.60;;;;;;5055244;28;19908;-72
2023/05/22 11:39:25;;;;;;;;;;;28.00;46.00;;;;;;5055804;28;19912;-72
2023/05/22 11:41:50;;;;;;;;;;;28.10;50.10;;;;;;5058454;28;19931;-72
2023/05/22 11:44:16;;;;;;;;;;;28.00;47.20;;;;;;5067324;28;20292;-72
2023/05/22 11:46:41;;;;;;;;;;;28.10;48.10;;;;;;5056099;28;20269;-72
2023/05/22 11:49:13;;;;;;;;;;;28.20;49.60;;;;;;5037850;28;19921;-73
2023/05/22 11:51:39;;;;;;;;;;;28.20;49.40;;;;;;5089992;28;19947;-72
2023/05/22 11:54:06;;;;;;;;;;;28.30;49.00;;;;;;5077900;28;19940;-72
2023/05/22 11:56:32;;;;;;;;;;;28.40;46.40;;;;;;5078759;28;19908;-73
2023/05/22 11:58:57;;;;;;;;;;;28.30;45.10;;;;;;5075608;28;19969;-72
2023/05/22 12:01:23;;;;;;;;;;;28.30;46.90;;;;;;5075651;28;20338;-72
2023/05/22 12:03:48;;;;;;;;;;;28.40;47.80;;;;;;5075578;28;19926;-72
2023/05/22 12:06:15;;;;;;;;;;;28.60;47.80;;;;;;5075441;28;20387;-72
2023/05/22 12:08:41;;;;;;;;;;;28.70;46.50;;;;;;5075326;28;19966;-72
2023/05/22 12:11:10;;;;;;;;;;;28.80;45.90;;;;;;5075704;28;19908;-72
2023/05/22 12:13:35;;;;;;;;;;;28.90;49.20;;;;;;5075591;28;19944;-72
2023/05/22 12:16:01;;;;;;;;;;;29.00;46.20;;;;;;5075682;28;19940;-72
2023/05/22 12:18:33;;;;;;;;;;;29.20;52.60;;;;;;5057530;28;19915;-72
2023/05/22 12:20:59;;;;;;;;;;;29.30;46.60;;;;;;5075377;28;19904;-72
2023/05/22 12:23:25;;;;;;;;;;;29.30;48.20;;;;;;5075159;28;19912;-72
2023/05/22 12:26:07;;;;;;;;;;;29.50;48.20;;;;;;5075145;28;19909;-72
2023/05/22 12:28:33;;;;;;;;;;;29.60;46.20;;;;;;5075170;28;19908;-72
2023/05/22 12:30:58;;;;;;;;;;;29.60;44.90;;;;;;5074957;28;19904;-72
2023/05/22 12:33:25;;;;;;;;;;;29.50;46.70;;;;;;5068595;28;19909;-73
2023/05/22 12:35:53;;;;;;;;;;;29.40;47.40;;;;;;5074968;28;20082;-72
2023/05/22 12:38:20;;;;;;;;;;;29.50;47.70;;;;;;5075708;28;20252;-72
2023/05/22 12:40:45;;;;;;;4.63;3.15;;;29.80;50.80;;;;;;5072279;28;19930;-72
2023/05/22 12:43:11;;;;;;;4.53;3.17;;;29.80;45.80;;;;;;5045222;28;20028;-72
2023/05/22 12:45:40;;;;;;;4.20;3.13;;;29.80;48.20;;;;;;5073415;28;20472;-74
2023/05/22 12:48:05;;;;;;;4.95;3.17;;;29.80;46.30;;;;;;5051119;28;20029;-72
2023/05/22 12:50:31;;;;;;;6.00;3.53;;;29.80;45.30;;;;;;5074168;28;20032;-73
2023/05/22 12:52:57;;;;;;;4.65;3.55;;;29.70;46.00;;;;;;5057587;28;20416;-74
2023/05/22 12:55:22;;;;;;;4.40;3.10;;;29.60;46.30;;;;;;5036569;28;20060;-74
2023/05/22 12:57:48;;;;;;;5.00;3.53;;;29.40;44.60;;;;;;5036130;28;20037;-73
2023/05/22 13:00:14;;;;;;;4.50;3.45;;;29.00;44.20;;;;;;5035792;28;20036;-73
2023/05/22 13:02:40;;;;;;;3.97;2.92;;;28.80;46.60;;;;;;5052343;28;20039;-73
2023/05/22 13:05:06;;;;;;;6.10;3.25;;;28.70;44.10;;;;;;5053928;28;20028;-74
2023/05/22 13:07:32;;;;;;;4.63;3.10;;;28.80;45.70;;;;;;5052598;28;20029;-73